sensor_id;sensor_type;location;lat;lon;timestamp;P1;durP1;ratioP1;P2;durP2;ratioP2
53654;SDS011;39558;52.028;8.536;2022-08-26T00:02:02;8.90;;;3.70;;
53654;SDS011;39558;52.028;8.536;2022-08-26T00:04:28;8.75;;;3.22;;
53654;SDS011;39558;52.028;8.536;2022-08-26T00:06:55;10.95;;;3.45;;
53654;SDS011;39558;52.028;8.536;2022-08-26T00:09:22;12.60;;;3.25;;
53654;SDS011;39558;52.028;8.536;2022-08-26T00:11:48;14.02;;;4.10;;
53654;SDS011;39558;52.028;8.536;2022-08-26T00:14:14;7.68;;;3.17;;
53654;SDS011;39558;52.028;8.536;2022-08-26T00:16:40;11.00;;;3.00;;
53654;SDS011;39558;52.028;8.536;2022-08-26T00:19:07;7.53;;;3.10;;
53654;SDS011;39558;52.028;8.536;2022-08-26T00:21:33;7.70;;;3.17;;
53654;SDS011;39558;52.028;8.536;2022-08-26T00:23:59;7.25;;;3.05;;
53654;SDS011;39558;52.028;8.536;2022-08-26T00:26:25;9.05;;;3.85;;
53654;SDS011;39558;52.028;8.536;2022-08-26T00:28:50;11.48;;;4.50;;
53654;SDS011;39558;52.028;8.536;2022-08-26T00:31:16;8.05;;;3.05;;
53654;SDS011;39558;52.028;8.536;2022-08-26T00:33:42;7.88;;;3.47;;
53654;SDS011;39558;52.028;8.536;2022-08-26T00:36:08;12.88;;;3.83;;
53654;SDS011;39558;52.028;8.536;2022-08-26T00:38:35;9.02;;;3.33;;
53654;SDS011;39558;52.028;8.536;2022-08-26T00:41:02;10.00;;;3.45;;
53654;SDS011;39558;52.028;8.536;2022-08-26T00:43:29;14.05;;;3.58;;
53654;SDS011;39558;52.028;8.536;2022-08-26T00:45:58;6.60;;;3.22;;
53654;SDS011;39558;52.028;8.536;2022-08-26T00:48:26;11.80;;;3.38;;
53654;SDS011;39558;52.028;8.536;2022-08-26T00:53:38;9.20;;;3.10;;
53654;SDS011;39558;52.028;8.536;2022-08-26T00:56:07;8.38;;;3.58;;
53654;SDS011;39558;52.028;8.536;2022-08-26T00:58:34;8.98;;;3.42;;
53654;SDS011;39558;52.028;8.536;2022-08-26T01:01:01;11.02;;;3.42;;
53654;SDS011;39558;52.028;8.536;2022-08-26T01:03:28;10.70;;;3.40;;
53654;SDS011;39558;52.028;8.536;2022-08-26T01:05:56;12.25;;;4.32;;
53654;SDS011;39558;52.028;8.536;2022-08-26T01:08:23;9.10;;;3.65;;
53654;SDS011;39558;52.028;8.536;2022-08-26T01:10:49;9.15;;;3.42;;
53654;SDS011;39558;52.028;8.536;2022-08-26T01:13:16;9.13;;;3.33;;
53654;SDS011;39558;52.028;8.536;2022-08-26T01:15:43;13.77;;;4.68;;
53654;SDS011;39558;52.028;8.536;2022-08-26T01:18:09;9.98;;;4.53;;
53654;SDS011;39558;52.028;8.536;2022-08-26T01:20:45;10.35;;;3.15;;
53654;SDS011;39558;52.028;8.536;2022-08-26T01:23:13;7.60;;;3.13;;
53654;SDS011;39558;52.028;8.536;2022-08-26T01:25:40;12.60;;;3.55;;
53654;SDS011;39558;52.028;8.536;2022-08-26T01:28:09;9.02;;;3.95;;
53654;SDS011;39558;52.028;8.536;2022-08-26T01:30:37;8.73;;;3.60;;
53654;SDS011;39558;52.028;8.536;2022-08-26T01:33:05;8.10;;;3.33;;
53654;SDS011;39558;52.028;8.536;2022-08-26T01:35:32;8.27;;;4.47;;
53654;SDS011;39558;52.028;8.536;2022-08-26T01:37:58;8.32;;;3.45;;
53654;SDS011;39558;52.028;8.536;2022-08-26T01:40:28;11.68;;;3.70;;
53654;SDS011;39558;52.028;8.536;2022-08-26T01:42:56;7.63;;;3.47;;
53654;SDS011;39558;52.028;8.536;2022-08-26T01:45:24;6.47;;;3.63;;
53654;SDS011;39558;52.028;8.536;2022-08-26T01:47:51;12.77;;;3.92;;
53654;SDS011;39558;52.028;8.536;2022-08-26T01:50:21;9.85;;;3.53;;
53654;SDS011;39558;52.028;8.536;2022-08-26T01:52:48;8.55;;;3.40;;
53654;SDS011;39558;52.028;8.536;2022-08-26T01:55:14;6.95;;;3.40;;
53654;SDS011;39558;52.028;8.536;2022-08-26T01:57:42;10.25;;;3.72;;
53654;SDS011;39558;52.028;8.536;2022-08-26T02:00:09;8.95;;;3.92;;
53654;SDS011;39558;52.028;8.536;2022-08-26T02:02:37;10.23;;;4.13;;
53654;SDS011;39558;52.028;8.536;2022-08-26T02:05:04;8.07;;;3.60;;
53654;SDS011;39558;52.028;8.536;2022-08-26T02:07:31;7.90;;;3.70;;
53654;SDS011;39558;52.028;8.536;2022-08-26T02:09:57;8.57;;;3.80;;
53654;SDS011;39558;52.028;8.536;2022-08-26T02:12:23;7.82;;;3.40;;
53654;SDS011;39558;52.028;8.536;2022-08-26T02:14:51;11.27;;;3.65;;
53654;SDS011;39558;52.028;8.536;2022-08-26T02:17:28;9.52;;;4.03;;
53654;SDS011;39558;52.028;8.536;2022-08-26T02:19:55;7.55;;;3.28;;
53654;SDS011;39558;52.028;8.536;2022-08-26T02:22:22;8.93;;;4.63;;
53654;SDS011;39558;52.028;8.536;2022-08-26T02:24:52;9.35;;;3.75;;
53654;SDS011;39558;52.028;8.536;2022-08-26T02:27:20;9.57;;;3.47;;
53654;SDS011;39558;52.028;8.536;2022-08-26T02:29:48;7.32;;;3.83;;
53654;SDS011;39558;52.028;8.536;2022-08-26T02:32:16;7.15;;;3.83;;
53654;SDS011;39558;52.028;8.536;2022-08-26T02:34:42;12.05;;;4.05;;
53654;SDS011;39558;52.028;8.536;2022-08-26T02:37:09;7.05;;;3.63;;
53654;SDS011;39558;52.028;8.536;2022-08-26T02:39:35;8.57;;;3.83;;
53654;SDS011;39558;52.028;8.536;2022-08-26T02:42:02;6.90;;;3.80;;
53654;SDS011;39558;52.028;8.536;2022-08-26T02:44:29;9.70;;;3.60;;
53654;SDS011;39558;52.028;8.536;2022-08-26T02:46:55;7.68;;;3.38;;
53654;SDS011;39558;52.028;8.536;2022-08-26T02:49:21;7.03;;;3.97;;
53654;SDS011;39558;52.028;8.536;2022-08-26T02:51:47;9.48;;;4.32;;
53654;SDS011;39558;52.028;8.536;2022-08-26T02:54:14;12.90;;;3.97;;
53654;SDS011;39558;52.028;8.536;2022-08-26T02:56:40;8.07;;;4.10;;
53654;SDS011;39558;52.028;8.536;2022-08-26T02:59:06;8.27;;;3.90;;
53654;SDS011;39558;52.028;8.536;2022-08-26T03:01:32;6.32;;;3.08;;
53654;SDS011;39558;52.028;8.536;2022-08-26T03:04:00;8.40;;;4.03;;
53654;SDS011;39558;52.028;8.536;2022-08-26T03:06:26;8.60;;;3.47;;
53654;SDS011;39558;52.028;8.536;2022-08-26T03:08:52;6.25;;;3.35;;
53654;SDS011;39558;52.028;8.536;2022-08-26T03:11:18;7.97;;;3.63;;
53654;SDS011;39558;52.028;8.536;2022-08-26T03:13:44;6.47;;;3.30;;
53654;SDS011;39558;52.028;8.536;2022-08-26T03:16:10;11.13;;;3.58;;
53654;SDS011;39558;52.028;8.536;2022-08-26T03:18:37;6.35;;;3.65;;
53654;SDS011;39558;52.028;8.536;2022-08-26T03:21:07;8.18;;;4.05;;
53654;SDS011;39558;52.028;8.536;2022-08-26T03:23:34;9.10;;;3.65;;
53654;SDS011;39558;52.028;8.536;2022-08-26T03:26:00;7.13;;;3.40;;
53654;SDS011;39558;52.028;8.536;2022-08-26T03:28:26;8.80;;;4.00;;
53654;SDS011;39558;52.028;8.536;2022-08-26T03:30:52;9.02;;;3.58;;
53654;SDS011;39558;52.028;8.536;2022-08-26T03:33:18;8.48;;;3.67;;
53654;SDS011;39558;52.028;8.536;2022-08-26T03:35:44;7.78;;;3.63;;
53654;SDS011;39558;52.028;8.536;2022-08-26T03:38:13;10.13;;;4.22;;
53654;SDS011;39558;52.028;8.536;2022-08-26T03:40:41;9.55;;;3.75;;
53654;SDS011;39558;52.028;8.536;2022-08-26T03:43:07;10.32;;;4.00;;
53654;SDS011;39558;52.028;8.536;2022-08-26T03:45:34;8.75;;;3.97;;
53654;SDS011;39558;52.028;8.536;2022-08-26T03:48:00;8.30;;;3.35;;
53654;SDS011;39558;52.028;8.536;2022-08-26T03:50:27;7.75;;;3.88;;
53654;SDS011;39558;52.028;8.536;2022-08-26T03:52:53;7.40;;;3.88;;
53654;SDS011;39558;52.028;8.536;2022-08-26T03:55:20;7.63;;;3.10;;
53654;SDS011;39558;52.028;8.536;2022-08-26T03:57:46;9.80;;;3.88;;
53654;SDS011;39558;52.028;8.536;2022-08-26T04:00:13;9.77;;;3.67;;
53654;SDS011;39558;52.028;8.536;2022-08-26T04:02:41;10.00;;;3.40;;
53654;SDS011;39558;52.028;8.536;2022-08-26T04:05:09;9.10;;;3.87;;
53654;SDS011;39558;52.028;8.536;2022-08-26T04:07:35;8.85;;;4.05;;
53654;SDS011;39558;52.028;8.536;2022-08-26T04:10:02;7.95;;;3.80;;
53654;SDS011;39558;52.028;8.536;2022-08-26T04:12:28;6.90;;;3.53;;
53654;SDS011;39558;52.028;8.536;2022-08-26T04:14:54;9.95;;;4.50;;
53654;SDS011;39558;52.028;8.536;2022-08-26T04:17:20;7.72;;;3.40;;
53654;SDS011;39558;52.028;8.536;2022-08-26T04:19:49;9.13;;;3.50;;
53654;SDS011;39558;52.028;8.536;2022-08-26T04:22:15;9.35;;;3.80;;
53654;SDS011;39558;52.028;8.536;2022-08-26T04:24:42;7.30;;;3.78;;
53654;SDS011;39558;52.028;8.536;2022-08-26T04:27:08;7.18;;;3.40;;
53654;SDS011;39558;52.028;8.536;2022-08-26T04:29:34;9.10;;;4.00;;
53654;SDS011;39558;52.028;8.536;2022-08-26T04:32:00;7.40;;;3.60;;
53654;SDS011;39558;52.028;8.536;2022-08-26T04:34:27;11.32;;;4.22;;
53654;SDS011;39558;52.028;8.536;2022-08-26T04:36:53;9.77;;;3.72;;
53654;SDS011;39558;52.028;8.536;2022-08-26T04:39:19;11.93;;;3.90;;
53654;SDS011;39558;52.028;8.536;2022-08-26T04:41:47;10.63;;;4.68;;
53654;SDS011;39558;52.028;8.536;2022-08-26T04:44:14;7.50;;;3.88;;
53654;SDS011;39558;52.028;8.536;2022-08-26T04:46:40;8.18;;;4.00;;
53654;SDS011;39558;52.028;8.536;2022-08-26T04:49:06;8.77;;;3.90;;
53654;SDS011;39558;52.028;8.536;2022-08-26T04:51:32;5.95;;;3.60;;
53654;SDS011;39558;52.028;8.536;2022-08-26T04:53:58;12.18;;;4.10;;
53654;SDS011;39558;52.028;8.536;2022-08-26T04:56:25;9.20;;;3.83;;
53654;SDS011;39558;52.028;8.536;2022-08-26T04:58:51;8.07;;;3.95;;
53654;SDS011;39558;52.028;8.536;2022-08-26T05:01:17;7.18;;;3.95;;
53654;SDS011;39558;52.028;8.536;2022-08-26T05:03:44;9.00;;;3.58;;
53654;SDS011;39558;52.028;8.536;2022-08-26T05:06:10;8.82;;;3.80;;
53654;SDS011;39558;52.028;8.536;2022-08-26T05:08:36;9.60;;;4.18;;
53654;SDS011;39558;52.028;8.536;2022-08-26T05:11:03;10.73;;;4.38;;
53654;SDS011;39558;52.028;8.536;2022-08-26T05:13:29;11.93;;;4.00;;
53654;SDS011;39558;52.028;8.536;2022-08-26T05:15:55;10.05;;;4.32;;
53654;SDS011;39558;52.028;8.536;2022-08-26T05:18:21;7.35;;;3.97;;
53654;SDS011;39558;52.028;8.536;2022-08-26T05:20:48;8.45;;;3.65;;
53654;SDS011;39558;52.028;8.536;2022-08-26T05:23:15;10.23;;;3.72;;
53654;SDS011;39558;52.028;8.536;2022-08-26T05:25:41;10.63;;;4.28;;
53654;SDS011;39558;52.028;8.536;2022-08-26T05:28:09;7.40;;;3.10;;
53654;SDS011;39558;52.028;8.536;2022-08-26T05:30:35;8.07;;;4.78;;
53654;SDS011;39558;52.028;8.536;2022-08-26T05:33:02;10.90;;;4.13;;
53654;SDS011;39558;52.028;8.536;2022-08-26T05:35:28;11.38;;;4.22;;
53654;SDS011;39558;52.028;8.536;2022-08-26T05:40:24;11.45;;;5.00;;
53654;SDS011;39558;52.028;8.536;2022-08-26T05:42:50;10.35;;;4.43;;
53654;SDS011;39558;52.028;8.536;2022-08-26T05:45:16;9.25;;;3.90;;
53654;SDS011;39558;52.028;8.536;2022-08-26T05:47:42;9.43;;;4.22;;
53654;SDS011;39558;52.028;8.536;2022-08-26T05:50:08;9.80;;;4.22;;
53654;SDS011;39558;52.028;8.536;2022-08-26T05:52:34;11.55;;;3.80;;
53654;SDS011;39558;52.028;8.536;2022-08-26T05:55:00;9.82;;;4.25;;
53654;SDS011;39558;52.028;8.536;2022-08-26T05:57:29;14.00;;;5.07;;
53654;SDS011;39558;52.028;8.536;2022-08-26T05:59:55;10.55;;;4.15;;
53654;SDS011;39558;52.028;8.536;2022-08-26T06:02:21;13.25;;;4.90;;
53654;SDS011;39558;52.028;8.536;2022-08-26T06:04:47;8.75;;;4.30;;
53654;SDS011;39558;52.028;8.536;2022-08-26T06:07:13;10.65;;;4.07;;
53654;SDS011;39558;52.028;8.536;2022-08-26T06:09:40;6.25;;;3.72;;
53654;SDS011;39558;52.028;8.536;2022-08-26T06:12:06;8.45;;;3.90;;
53654;SDS011;39558;52.028;8.536;2022-08-26T06:14:32;7.40;;;3.88;;
53654;SDS011;39558;52.028;8.536;2022-08-26T06:16:59;11.80;;;4.35;;
53654;SDS011;39558;52.028;8.536;2022-08-26T06:19:25;10.48;;;4.72;;
53654;SDS011;39558;52.028;8.536;2022-08-26T06:21:51;13.27;;;4.07;;
53654;SDS011;39558;52.028;8.536;2022-08-26T06:24:18;8.27;;;4.10;;
53654;SDS011;39558;52.028;8.536;2022-08-26T06:27:04;14.48;;;4.68;;
53654;SDS011;39558;52.028;8.536;2022-08-26T06:29:33;10.10;;;4.20;;
53654;SDS011;39558;52.028;8.536;2022-08-26T06:31:59;9.15;;;4.28;;
53654;SDS011;39558;52.028;8.536;2022-08-26T06:34:27;10.68;;;4.95;;
53654;SDS011;39558;52.028;8.536;2022-08-26T06:36:53;10.88;;;4.20;;
53654;SDS011;39558;52.028;8.536;2022-08-26T06:39:19;11.68;;;5.15;;
53654;SDS011;39558;52.028;8.536;2022-08-26T06:41:46;13.80;;;4.53;;
53654;SDS011;39558;52.028;8.536;2022-08-26T06:44:12;17.20;;;5.72;;
53654;SDS011;39558;52.028;8.536;2022-08-26T06:46:39;9.45;;;4.50;;
53654;SDS011;39558;52.028;8.536;2022-08-26T06:49:05;11.02;;;5.35;;
53654;SDS011;39558;52.028;8.536;2022-08-26T06:51:35;12.50;;;4.70;;
53654;SDS011;39558;52.028;8.536;2022-08-26T06:56:34;8.02;;;3.67;;
53654;SDS011;39558;52.028;8.536;2022-08-26T06:59:00;12.10;;;4.43;;
53654;SDS011;39558;52.028;8.536;2022-08-26T07:01:28;10.93;;;4.75;;
53654;SDS011;39558;52.028;8.536;2022-08-26T07:03:57;14.00;;;4.40;;
53654;SDS011;39558;52.028;8.536;2022-08-26T07:06:24;13.20;;;4.63;;
53654;SDS011;39558;52.028;8.536;2022-08-26T07:08:51;12.88;;;4.85;;
53654;SDS011;39558;52.028;8.536;2022-08-26T07:11:18;9.30;;;4.78;;
53654;SDS011;39558;52.028;8.536;2022-08-26T07:13:44;6.95;;;3.85;;
53654;SDS011;39558;52.028;8.536;2022-08-26T07:16:11;7.28;;;3.90;;
53654;SDS011;39558;52.028;8.536;2022-08-26T07:18:37;10.38;;;3.95;;
53654;SDS011;39558;52.028;8.536;2022-08-26T07:21:05;15.65;;;4.70;;
53654;SDS011;39558;52.028;8.536;2022-08-26T07:23:32;8.63;;;3.70;;
53654;SDS011;39558;52.028;8.536;2022-08-26T07:26:00;10.15;;;5.05;;
53654;SDS011;39558;52.028;8.536;2022-08-26T07:28:28;9.02;;;3.63;;
53654;SDS011;39558;52.028;8.536;2022-08-26T07:30:54;6.45;;;3.85;;
53654;SDS011;39558;52.028;8.536;2022-08-26T07:33:20;8.30;;;4.43;;
53654;SDS011;39558;52.028;8.536;2022-08-26T07:35:46;8.68;;;3.63;;
53654;SDS011;39558;52.028;8.536;2022-08-26T07:38:12;8.25;;;3.58;;
53654;SDS011;39558;52.028;8.536;2022-08-26T07:40:38;7.00;;;3.20;;
53654;SDS011;39558;52.028;8.536;2022-08-26T07:43:04;12.07;;;4.32;;
53654;SDS011;39558;52.028;8.536;2022-08-26T07:45:30;8.23;;;4.10;;
53654;SDS011;39558;52.028;8.536;2022-08-26T07:47:56;8.93;;;4.20;;
53654;SDS011;39558;52.028;8.536;2022-08-26T07:50:22;7.75;;;4.15;;
53654;SDS011;39558;52.028;8.536;2022-08-26T07:52:48;6.88;;;3.50;;
53654;SDS011;39558;52.028;8.536;2022-08-26T07:55:14;12.25;;;4.65;;
53654;SDS011;39558;52.028;8.536;2022-08-26T07:57:41;13.35;;;4.15;;
53654;SDS011;39558;52.028;8.536;2022-08-26T08:00:07;12.43;;;4.32;;
53654;SDS011;39558;52.028;8.536;2022-08-26T08:02:34;9.25;;;3.75;;
53654;SDS011;39558;52.028;8.536;2022-08-26T08:05:00;9.77;;;3.30;;
53654;SDS011;39558;52.028;8.536;2022-08-26T08:07:26;10.88;;;4.00;;
53654;SDS011;39558;52.028;8.536;2022-08-26T08:09:52;7.53;;;4.13;;
53654;SDS011;39558;52.028;8.536;2022-08-26T08:12:18;7.68;;;4.22;;
53654;SDS011;39558;52.028;8.536;2022-08-26T08:14:45;9.18;;;4.20;;
53654;SDS011;39558;52.028;8.536;2022-08-26T08:17:12;11.45;;;4.20;;
53654;SDS011;39558;52.028;8.536;2022-08-26T08:19:38;12.23;;;3.92;;
53654;SDS011;39558;52.028;8.536;2022-08-26T08:22:04;10.07;;;4.10;;
53654;SDS011;39558;52.028;8.536;2022-08-26T08:24:31;8.88;;;3.15;;
53654;SDS011;39558;52.028;8.536;2022-08-26T08:27:00;12.73;;;4.07;;
53654;SDS011;39558;52.028;8.536;2022-08-26T08:29:27;12.25;;;3.67;;
53654;SDS011;39558;52.028;8.536;2022-08-26T08:31:53;12.05;;;4.00;;
53654;SDS011;39558;52.028;8.536;2022-08-26T08:34:19;12.38;;;3.40;;
53654;SDS011;39558;52.028;8.536;2022-08-26T08:36:45;13.40;;;3.75;;
53654;SDS011;39558;52.028;8.536;2022-08-26T08:39:11;11.98;;;3.78;;
53654;SDS011;39558;52.028;8.536;2022-08-26T08:41:52;8.85;;;3.42;;
53654;SDS011;39558;52.028;8.536;2022-08-26T08:44:21;12.15;;;3.88;;
53654;SDS011;39558;52.028;8.536;2022-08-26T08:46:49;11.65;;;3.92;;
53654;SDS011;39558;52.028;8.536;2022-08-26T08:49:15;10.32;;;3.38;;
53654;SDS011;39558;52.028;8.536;2022-08-26T08:51:53;10.77;;;4.43;;
53654;SDS011;39558;52.028;8.536;2022-08-26T08:54:21;12.27;;;4.07;;
53654;SDS011;39558;52.028;8.536;2022-08-26T08:56:51;11.87;;;4.37;;
53654;SDS011;39558;52.028;8.536;2022-08-26T08:59:19;12.50;;;3.70;;
53654;SDS011;39558;52.028;8.536;2022-08-26T09:01:54;9.00;;;3.83;;
53654;SDS011;39558;52.028;8.536;2022-08-26T09:04:42;12.65;;;4.13;;
53654;SDS011;39558;52.028;8.536;2022-08-26T09:07:15;9.52;;;3.60;;
53654;SDS011;39558;52.028;8.536;2022-08-26T09:09:43;13.27;;;3.92;;
53654;SDS011;39558;52.028;8.536;2022-08-26T09:12:11;9.00;;;3.55;;
53654;SDS011;39558;52.028;8.536;2022-08-26T09:14:38;8.75;;;3.83;;
53654;SDS011;39558;52.028;8.536;2022-08-26T09:17:07;10.85;;;4.05;;
53654;SDS011;39558;52.028;8.536;2022-08-26T09:19:48;16.33;;;4.85;;
53654;SDS011;39558;52.028;8.536;2022-08-26T09:22:32;8.10;;;3.53;;
53654;SDS011;39558;52.028;8.536;2022-08-26T09:24:59;12.13;;;4.10;;
53654;SDS011;39558;52.028;8.536;2022-08-26T09:30:04;7.05;;;3.88;;
53654;SDS011;39558;52.028;8.536;2022-08-26T09:32:30;8.15;;;3.45;;
53654;SDS011;39558;52.028;8.536;2022-08-26T09:34:58;13.20;;;3.85;;
53654;SDS011;39558;52.028;8.536;2022-08-26T09:37:35;11.68;;;3.65;;
53654;SDS011;39558;52.028;8.536;2022-08-26T09:42:56;10.63;;;4.07;;
53654;SDS011;39558;52.028;8.536;2022-08-26T09:45:29;14.50;;;4.60;;
53654;SDS011;39558;52.028;8.536;2022-08-26T09:47:55;10.25;;;3.75;;
53654;SDS011;39558;52.028;8.536;2022-08-26T09:50:29;10.95;;;3.63;;
53654;SDS011;39558;52.028;8.536;2022-08-26T09:55:30;14.40;;;4.07;;
53654;SDS011;39558;52.028;8.536;2022-08-26T09:57:56;11.32;;;4.22;;
53654;SDS011;39558;52.028;8.536;2022-08-26T10:00:23;10.27;;;4.13;;
53654;SDS011;39558;52.028;8.536;2022-08-26T10:02:50;10.32;;;3.65;;
53654;SDS011;39558;52.028;8.536;2022-08-26T10:05:17;12.70;;;3.45;;
53654;SDS011;39558;52.028;8.536;2022-08-26T10:07:51;11.70;;;3.75;;
53654;SDS011;39558;52.028;8.536;2022-08-26T10:10:20;15.88;;;5.15;;
53654;SDS011;39558;52.028;8.536;2022-08-26T10:12:48;9.00;;;3.90;;
53654;SDS011;39558;52.028;8.536;2022-08-26T10:15:15;10.95;;;4.68;;
53654;SDS011;39558;52.028;8.536;2022-08-26T10:17:44;12.20;;;4.13;;
53654;SDS011;39558;52.028;8.536;2022-08-26T10:20:14;9.85;;;3.88;;
53654;SDS011;39558;52.028;8.536;2022-08-26T10:22:46;10.68;;;4.05;;
53654;SDS011;39558;52.028;8.536;2022-08-26T10:25:16;11.35;;;3.78;;
53654;SDS011;39558;52.028;8.536;2022-08-26T10:27:58;12.70;;;3.47;;
53654;SDS011;39558;52.028;8.536;2022-08-26T10:30:29;10.93;;;3.95;;
53654;SDS011;39558;52.028;8.536;2022-08-26T10:32:56;10.73;;;4.18;;
53654;SDS011;39558;52.028;8.536;2022-08-26T10:35:25;16.90;;;3.73;;
53654;SDS011;39558;52.028;8.536;2022-08-26T10:37:52;12.70;;;4.10;;
53654;SDS011;39558;52.028;8.536;2022-08-26T10:43:05;13.90;;;3.63;;
53654;SDS011;39558;52.028;8.536;2022-08-26T10:45:35;11.52;;;3.70;;
53654;SDS011;39558;52.028;8.536;2022-08-26T10:48:04;8.70;;;3.50;;
53654;SDS011;39558;52.028;8.536;2022-08-26T10:50:38;9.47;;;4.00;;
53654;SDS011;39558;52.028;8.536;2022-08-26T10:53:13;10.90;;;3.15;;
53654;SDS011;39558;52.028;8.536;2022-08-26T10:58:23;10.57;;;3.55;;
53654;SDS011;39558;52.028;8.536;2022-08-26T11:01:02;13.00;;;3.60;;
53654;SDS011;39558;52.028;8.536;2022-08-26T11:04:04;6.72;;;3.08;;
53654;SDS011;39558;52.028;8.536;2022-08-26T11:06:34;13.80;;;3.38;;
53654;SDS011;39558;52.028;8.536;2022-08-26T11:09:02;14.98;;;3.65;;
53654;SDS011;39558;52.028;8.536;2022-08-26T11:16:53;9.13;;;3.80;;
53654;SDS011;39558;52.028;8.536;2022-08-26T11:29:57;9.25;;;3.95;;
53654;SDS011;39558;52.028;8.536;2022-08-26T11:32:25;12.25;;;4.20;;
53654;SDS011;39558;52.028;8.536;2022-08-26T11:34:53;10.43;;;2.88;;
53654;SDS011;39558;52.028;8.536;2022-08-26T11:37:19;14.60;;;3.90;;
53654;SDS011;39558;52.028;8.536;2022-08-26T11:39:47;10.45;;;3.47;;
53654;SDS011;39558;52.028;8.536;2022-08-26T11:42:21;10.77;;;3.70;;
53654;SDS011;39558;52.028;8.536;2022-08-26T11:44:49;10.65;;;3.70;;
53654;SDS011;39558;52.028;8.536;2022-08-26T11:47:15;10.98;;;3.45;;
53654;SDS011;39558;52.028;8.536;2022-08-26T11:49:41;6.57;;;3.22;;
53654;SDS011;39558;52.028;8.536;2022-08-26T11:52:09;8.68;;;3.50;;
53654;SDS011;39558;52.028;8.536;2022-08-26T11:54:35;6.97;;;3.42;;
53654;SDS011;39558;52.028;8.536;2022-08-26T11:57:01;13.90;;;4.07;;
53654;SDS011;39558;52.028;8.536;2022-08-26T11:59:29;10.90;;;2.90;;
53654;SDS011;39558;52.028;8.536;2022-08-26T12:01:57;11.20;;;3.13;;
53654;SDS011;39558;52.028;8.536;2022-08-26T12:04:29;8.73;;;3.20;;
53654;SDS011;39558;52.028;8.536;2022-08-26T12:06:56;6.93;;;3.00;;
53654;SDS011;39558;52.028;8.536;2022-08-26T12:09:24;8.68;;;3.00;;
53654;SDS011;39558;52.028;8.536;2022-08-26T12:11:50;12.50;;;3.13;;
53654;SDS011;39558;52.028;8.536;2022-08-26T12:14:22;12.02;;;3.03;;
53654;SDS011;39558;52.028;8.536;2022-08-26T12:16:48;10.55;;;3.80;;
53654;SDS011;39558;52.028;8.536;2022-08-26T12:21:48;6.68;;;2.88;;
53654;SDS011;39558;52.028;8.536;2022-08-26T12:24:17;9.55;;;3.50;;
53654;SDS011;39558;52.028;8.536;2022-08-26T12:29:22;6.60;;;3.10;;
53654;SDS011;39558;52.028;8.536;2022-08-26T12:31:53;6.55;;;2.97;;
53654;SDS011;39558;52.028;8.536;2022-08-26T12:34:30;9.15;;;2.75;;
53654;SDS011;39558;52.028;8.536;2022-08-26T12:36:56;6.90;;;2.80;;
53654;SDS011;39558;52.028;8.536;2022-08-26T12:39:24;7.07;;;2.80;;
53654;SDS011;39558;52.028;8.536;2022-08-26T12:41:52;6.53;;;2.53;;
53654;SDS011;39558;52.028;8.536;2022-08-26T12:47:17;6.55;;;3.05;;
53654;SDS011;39558;52.028;8.536;2022-08-26T12:49:46;7.30;;;2.80;;
53654;SDS011;39558;52.028;8.536;2022-08-26T12:52:20;8.88;;;3.45;;
53654;SDS011;39558;52.028;8.536;2022-08-26T12:54:53;9.88;;;3.17;;
53654;SDS011;39558;52.028;8.536;2022-08-26T12:57:27;7.20;;;2.88;;
53654;SDS011;39558;52.028;8.536;2022-08-26T13:00:20;7.28;;;2.42;;
53654;SDS011;39558;52.028;8.536;2022-08-26T13:02:39;6.47;;;2.85;;
53654;SDS011;39558;52.028;8.536;2022-08-26T13:05:05;6.07;;;2.80;;
53654;SDS011;39558;52.028;8.536;2022-08-26T13:07:31;8.45;;;3.30;;
53654;SDS011;39558;52.028;8.536;2022-08-26T13:09:57;8.82;;;2.97;;
53654;SDS011;39558;52.028;8.536;2022-08-26T13:12:28;6.68;;;2.70;;
53654;SDS011;39558;52.028;8.536;2022-08-26T13:14:55;5.53;;;2.60;;
53654;SDS011;39558;52.028;8.536;2022-08-26T13:17:22;5.03;;;2.67;;
53654;SDS011;39558;52.028;8.536;2022-08-26T13:19:48;8.77;;;2.67;;
53654;SDS011;39558;52.028;8.536;2022-08-26T13:22:14;4.47;;;2.75;;
53654;SDS011;39558;52.028;8.536;2022-08-26T13:24:43;7.43;;;2.90;;
53654;SDS011;39558;52.028;8.536;2022-08-26T13:27:10;8.98;;;3.33;;
53654;SDS011;39558;52.028;8.536;2022-08-26T13:29:36;8.68;;;2.78;;
53654;SDS011;39558;52.028;8.536;2022-08-26T13:32:03;7.45;;;2.72;;
53654;SDS011;39558;52.028;8.536;2022-08-26T13:34:29;5.32;;;2.97;;
53654;SDS011;39558;52.028;8.536;2022-08-26T13:36:56;6.38;;;2.40;;
53654;SDS011;39558;52.028;8.536;2022-08-26T13:39:22;9.40;;;3.20;;
53654;SDS011;39558;52.028;8.536;2022-08-26T13:41:48;5.97;;;2.88;;
53654;SDS011;39558;52.028;8.536;2022-08-26T13:44:15;5.93;;;2.67;;
53654;SDS011;39558;52.028;8.536;2022-08-26T13:46:41;9.35;;;2.38;;
53654;SDS011;39558;52.028;8.536;2022-08-26T13:49:07;6.90;;;2.53;;
53654;SDS011;39558;52.028;8.536;2022-08-26T13:51:33;6.43;;;2.72;;
53654;SDS011;39558;52.028;8.536;2022-08-26T13:53:59;8.73;;;3.30;;
53654;SDS011;39558;52.028;8.536;2022-08-26T13:56:26;5.28;;;2.58;;
53654;SDS011;39558;52.028;8.536;2022-08-26T13:58:53;8.63;;;2.67;;
53654;SDS011;39558;52.028;8.536;2022-08-26T14:01:20;7.20;;;2.72;;
53654;SDS011;39558;52.028;8.536;2022-08-26T14:03:46;6.93;;;3.20;;
53654;SDS011;39558;52.028;8.536;2022-08-26T14:06:12;5.35;;;2.80;;
53654;SDS011;39558;52.028;8.536;2022-08-26T14:08:38;6.03;;;2.63;;
53654;SDS011;39558;52.028;8.536;2022-08-26T14:11:04;5.32;;;2.58;;
53654;SDS011;39558;52.028;8.536;2022-08-26T14:13:30;7.22;;;2.30;;
53654;SDS011;39558;52.028;8.536;2022-08-26T14:15:56;6.22;;;2.75;;
53654;SDS011;39558;52.028;8.536;2022-08-26T14:18:31;10.63;;;2.50;;
53654;SDS011;39558;52.028;8.536;2022-08-26T14:20:58;7.32;;;3.20;;
53654;SDS011;39558;52.028;8.536;2022-08-26T14:23:24;7.03;;;2.47;;
53654;SDS011;39558;52.028;8.536;2022-08-26T14:25:50;8.40;;;2.63;;
53654;SDS011;39558;52.028;8.536;2022-08-26T14:28:16;6.45;;;2.80;;
53654;SDS011;39558;52.028;8.536;2022-08-26T14:30:43;8.80;;;2.92;;
53654;SDS011;39558;52.028;8.536;2022-08-26T14:33:12;6.85;;;2.40;;
53654;SDS011;39558;52.028;8.536;2022-08-26T14:35:40;6.22;;;2.80;;
53654;SDS011;39558;52.028;8.536;2022-08-26T14:38:06;8.50;;;2.65;;
53654;SDS011;39558;52.028;8.536;2022-08-26T14:40:32;6.22;;;2.95;;
53654;SDS011;39558;52.028;8.536;2022-08-26T14:42:58;5.82;;;2.53;;
53654;SDS011;39558;52.028;8.536;2022-08-26T14:45:25;8.10;;;2.45;;
53654;SDS011;39558;52.028;8.536;2022-08-26T14:47:52;6.15;;;2.50;;
53654;SDS011;39558;52.028;8.536;2022-08-26T14:50:20;5.45;;;3.28;;
53654;SDS011;39558;52.028;8.536;2022-08-26T14:52:47;5.70;;;2.35;;
53654;SDS011;39558;52.028;8.536;2022-08-26T14:55:33;6.80;;;2.30;;
53654;SDS011;39558;52.028;8.536;2022-08-26T14:57:59;6.53;;;2.70;;
53654;SDS011;39558;52.028;8.536;2022-08-26T15:00:26;5.47;;;2.60;;
53654;SDS011;39558;52.028;8.536;2022-08-26T15:02:52;5.50;;;2.53;;
53654;SDS011;39558;52.028;8.536;2022-08-26T15:05:18;6.43;;;2.78;;
53654;SDS011;39558;52.028;8.536;2022-08-26T15:07:44;4.90;;;2.47;;
53654;SDS011;39558;52.028;8.536;2022-08-26T15:10:11;6.65;;;2.83;;
53654;SDS011;39558;52.028;8.536;2022-08-26T15:12:37;5.88;;;2.40;;
53654;SDS011;39558;52.028;8.536;2022-08-26T15:15:05;7.20;;;2.75;;
53654;SDS011;39558;52.028;8.536;2022-08-26T15:17:31;7.18;;;2.72;;
53654;SDS011;39558;52.028;8.536;2022-08-26T15:19:57;3.95;;;2.17;;
53654;SDS011;39558;52.028;8.536;2022-08-26T15:22:23;7.07;;;2.53;;
53654;SDS011;39558;52.028;8.536;2022-08-26T15:24:50;8.77;;;2.78;;
53654;SDS011;39558;52.028;8.536;2022-08-26T15:27:16;5.35;;;2.20;;
53654;SDS011;39558;52.028;8.536;2022-08-26T15:29:42;5.18;;;2.28;;
53654;SDS011;39558;52.028;8.536;2022-08-26T15:32:09;5.22;;;2.58;;